Terminal Aerodrome Forecast
Issued by NWS

Home | Current Version | Previous Version | Text Only | Print | Product List | Glossary Off
Versions: 1 2 3 4 5 6 7 8 9 10 11 12 13 14 15 16

810
FTUS43 KMPX 241143
TAFAXN
TAF
KAXN 241143Z 2412/2512 24004KT P6SM SCT150
     FM241800 21006KT P6SM SCT050 SCT150
     FM250200 11005KT P6SM BKN250=

USA.gov is the U.S. government's official web portal to all federal, state and local government web resources and services.